Time;durP1;ratioP1;P1;durP2;ratioP2;P2;SDS_P1;SDS_P2;PMS_P1;PMS_P2;Temp;Humidity;BMP_temperature;BMP_pressure;BME280_temperature;BME280_humidity;BME280_pressure;Samples;Min_cycle;Max_cycle;Signal;HPM_P1;HPM_P2
2023/06/06 00:00:41;;;;;;;2.50;1.58;;;18.90;61.20;;;;;;4981410;28;20466;-65
2023/06/06 00:03:07;;;;;;;2.60;1.35;;;18.90;61.10;;;;;;4958813;28;20022;-64
2023/06/06 00:05:33;;;;;;;2.67;1.52;;;18.90;61.30;;;;;;4978847;28;20485;-65
2023/06/06 00:07:59;;;;;;;7.40;1.40;;;18.90;61.90;;;;;;4976064;28;20117;-65
2023/06/06 00:10:25;;;;;;;2.70;1.75;;;18.90;61.40;;;;;;4983027;28;20133;-65
2023/06/06 00:12:52;;;;;;;2.63;1.50;;;18.90;61.50;;;;;;4983102;28;20039;-65
2023/06/06 00:15:19;;;;;;;1.65;1.38;;;18.80;61.70;;;;;;4980489;28;20034;-65
2023/06/06 00:17:48;;;;;;;5.15;1.50;;;18.80;61.90;;;;;;4980786;28;20034;-65
2023/06/06 00:20:14;;;;;;;3.05;1.48;;;18.80;62.00;;;;;;4977290;28;20030;-64
2023/06/06 00:22:41;;;;;;;2.90;1.33;;;18.80;62.10;;;;;;4979212;28;20034;-65
2023/06/06 00:25:07;;;;;;;6.68;2.03;;;18.80;61.70;;;;;;4978054;28;20035;-65
2023/06/06 00:27:34;;;;;;;2.63;1.48;;;18.70;62.80;;;;;;4980564;28;20398;-65
2023/06/06 00:30:01;;;;;;;1.73;1.15;;;18.70;62.10;;;;;;4979600;28;20022;-65
2023/06/06 00:32:27;;;;;;;1.65;1.30;;;18.70;62.10;;;;;;4965867;28;20108;-64
2023/06/06 00:34:54;;;;;;;4.50;1.60;;;18.70;62.10;;;;;;4981380;28;20046;-65
2023/06/06 00:37:20;;;;;;;2.97;1.70;;;18.60;62.10;;;;;;4961039;28;20043;-65
2023/06/06 00:39:47;;;;;;;2.53;1.48;;;18.60;62.40;;;;;;4979028;28;20029;-65
2023/06/06 00:42:12;;;;;;;4.10;1.67;;;18.60;63.30;;;;;;4957792;28;20490;-65
2023/06/06 00:44:38;;;;;;;2.33;1.40;;;18.60;63.40;;;;;;4981462;28;20034;-65
2023/06/06 00:47:05;;;;;;;3.97;1.75;;;18.60;63.00;;;;;;4966295;28;20560;-64
2023/06/06 00:49:31;;;;;;;6.20;1.60;;;18.50;63.10;;;;;;4963680;28;20018;-65
2023/06/06 00:51:58;;;;;;;2.15;1.50;;;18.50;62.60;;;;;;4981197;28;20136;-65
2023/06/06 00:54:24;;;;;;;2.95;1.40;;;18.50;63.90;;;;;;4978972;28;20050;-65
2023/06/06 00:56:51;;;;;;;2.38;1.55;;;18.40;63.70;;;;;;4961103;28;20147;-64
2023/06/06 00:59:18;;;;;;;2.70;1.52;;;18.40;64.20;;;;;;4975397;28;20906;-64
2023/06/06 01:01:48;;;;;;;2.85;1.50;;;18.40;64.50;;;;;;4967015;28;20026;-64
2023/06/06 01:04:15;;;;;;;2.08;1.27;;;18.30;64.80;;;;;;4965318;28;20038;-64
2023/06/06 01:06:42;;;;;;;1.48;1.20;;;18.20;65.00;;;;;;4983777;28;20026;-64
2023/06/06 01:09:12;;;;;;;1.63;1.25;;;18.10;65.30;;;;;;4978766;28;20105;-64
2023/06/06 01:12:07;;;;;;;5.03;1.80;;;18.10;65.30;;;;;;4976535;28;20104;-64
2023/06/06 01:14:43;;;;;;;4.65;1.75;;;18.00;65.70;;;;;;4978026;28;20713;-64
2023/06/06 01:17:10;;;;;;;;;;;18.00;65.90;;;;;;4973084;28;20061;-65
2023/06/06 01:19:41;;;;;;;2.75;1.40;;;17.90;66.00;;;;;;4975485;28;19914;-65
2023/06/06 01:22:07;;;;;;;1.80;1.48;;;17.90;66.30;;;;;;4980010;28;20042;-65
2023/06/06 01:24:36;;;;;;;2.55;1.50;;;17.80;66.40;;;;;;4981395;28;20149;-64
2023/06/06 01:27:03;;;;;;;2.80;1.27;;;17.80;66.50;;;;;;4961888;28;20023;-64
2023/06/06 01:29:30;;;;;;;3.38;1.60;;;17.70;66.70;;;;;;4961213;28;20673;-64
2023/06/06 01:32:17;;;;;;;2.83;1.92;;;17.60;66.90;;;;;;4962113;28;20029;-64
2023/06/06 01:34:48;;;;;;;2.45;1.50;;;17.60;66.70;;;;;;4962077;28;20026;-64
2023/06/06 01:37:37;;;;;;;3.38;1.70;;;17.60;67.00;;;;;;4955855;28;20709;-66
2023/06/06 01:40:07;;;;;;;2.00;1.35;;;17.50;67.60;;;;;;4978426;28;20046;-64
2023/06/06 01:42:44;;;;;;;3.60;1.42;;;17.40;67.80;;;;;;4980963;28;20046;-65
2023/06/06 01:45:12;;;;;;;2.40;1.60;;;17.30;68.00;;;;;;4960938;28;20121;-64
2023/06/06 01:47:39;;;;;;;2.13;1.67;;;17.20;68.40;;;;;;4978538;28;20022;-64
2023/06/06 01:50:07;;;;;;;2.35;1.70;;;17.20;68.70;;;;;;4958306;28;20041;-64
2023/06/06 01:52:35;;;;;;;3.42;1.70;;;17.10;69.00;;;;;;4976699;28;20093;-64
2023/06/06 01:55:01;;;;;;;3.08;1.77;;;17.00;69.30;;;;;;4976331;28;20041;-63
2023/06/06 01:57:28;;;;;;;2.65;1.63;;;17.00;69.60;;;;;;4964580;28;20098;-64
2023/06/06 01:59:55;;;;;;;2.53;1.63;;;17.00;69.70;;;;;;4966524;28;20092;-64
2023/06/06 02:02:20;;;;;;;2.20;1.73;;;16.90;69.80;;;;;;4963440;28;20797;-64
2023/06/06 02:04:48;;;;;;;4.65;1.67;;;16.90;70.00;;;;;;4960011;28;20050;-64
2023/06/06 02:07:17;;;;;;;2.22;1.60;;;16.80;70.20;;;;;;4958073;28;20023;-64
2023/06/06 02:09:43;;;;;;;1.95;1.17;;;16.70;70.40;;;;;;4961628;28;20137;-64
2023/06/06 02:12:10;;;;;;;5.07;1.80;;;16.70;70.60;;;;;;4962753;28;20637;-64
2023/06/06 02:14:36;;;;;;;2.28;1.73;;;16.70;71.60;;;;;;4965815;28;20034;-64
2023/06/06 02:17:03;;;;;;;3.50;1.80;;;16.70;71.00;;;;;;4963596;28;20040;-64
2023/06/06 02:19:31;;;;;;;2.53;1.63;;;16.60;71.20;;;;;;4962189;28;20038;-64
2023/06/06 02:21:56;;;;;;;2.22;1.80;;;16.60;71.30;;;;;;4962079;28;20027;-65
2023/06/06 02:24:24;;;;;;;4.22;1.40;;;16.60;71.50;;;;;;4962511;28;20530;-64
2023/06/06 02:26:54;;;;;;;3.00;1.88;;;16.60;71.80;;;;;;4975477;28;20026;-65
2023/06/06 02:29:22;;;;;;;3.15;1.90;;;16.60;71.70;;;;;;4955879;28;20027;-65
2023/06/06 02:31:53;;;;;;;3.53;1.75;;;16.60;71.90;;;;;;4961198;28;20081;-65
2023/06/06 02:34:19;;;;;;;3.60;1.98;;;16.60;72.00;;;;;;4980531;28;20505;-64
2023/06/06 02:36:45;;;;;;;3.88;1.70;;;16.60;72.40;;;;;;4965565;28;20034;-64
2023/06/06 02:39:12;;;;;;;2.58;1.80;;;16.60;72.10;;;;;;4958966;28;20053;-64
2023/06/06 02:41:37;;;;;;;2.00;1.45;;;16.60;72.20;;;;;;4979691;28;20032;-65
2023/06/06 02:44:03;;;;;;;2.45;1.55;;;16.60;72.30;;;;;;4976043;28;20038;-64
2023/06/06 02:46:30;;;;;;;3.05;1.70;;;16.60;72.30;;;;;;4974257;28;20749;-64
2023/06/06 02:48:57;;;;;;;4.13;2.55;;;16.60;72.50;;;;;;4955596;28;20068;-64
2023/06/06 02:51:23;;;;;;;3.90;1.63;;;16.60;72.50;;;;;;4961650;28;20022;-65
2023/06/06 02:53:49;;;;;;;2.72;1.38;;;16.60;72.50;;;;;;4979524;28;20034;-64
2023/06/06 02:56:16;;;;;;;2.40;1.60;;;16.60;72.50;;;;;;4959333;28;20042;-64
2023/06/06 02:58:43;;;;;;;8.95;1.60;;;16.60;72.40;;;;;;4964415;28;20149;-65
2023/06/06 03:01:12;;;;;;;3.50;1.98;;;16.60;72.40;;;;;;4955654;28;20030;-62
2023/06/06 03:03:39;;;;;;;4.35;1.75;;;16.60;72.40;;;;;;4975003;28;20045;-63
2023/06/06 03:06:06;;;;;;;3.08;1.80;;;16.60;72.30;;;;;;4957180;28;20061;-63
2023/06/06 03:08:33;;;;;;;1.70;1.45;;;16.60;72.40;;;;;;4962544;28;20080;-63
2023/06/06 03:10:59;;;;;;;6.03;1.70;;;16.60;72.40;;;;;;4963158;28;20022;-63
2023/06/06 03:13:25;;;;;;;3.17;1.35;;;16.60;72.50;;;;;;4962535;28;20121;-62
2023/06/06 03:15:52;;;;;;;2.95;1.60;;;16.60;72.30;;;;;;4959835;28;20022;-63
2023/06/06 03:18:20;;;;;;;2.00;1.58;;;16.60;72.20;;;;;;4962167;28;20074;-63
2023/06/06 03:20:51;;;;;;;2.42;1.70;;;16.60;72.40;;;;;;4957183;28;20068;-63
2023/06/06 03:23:18;;;;;;;3.05;1.92;;;16.60;72.60;;;;;;4962370;28;20031;-63
2023/06/06 03:25:45;;;;;;;1.92;1.50;;;16.60;72.90;;;;;;4964707;28;20117;-63
2023/06/06 03:28:12;;;;;;;2.10;1.60;;;16.60;73.00;;;;;;4979052;28;20030;-63
2023/06/06 03:30:39;;;;;;;5.30;1.52;;;16.70;73.20;;;;;;4964157;28;20401;-63
2023/06/06 03:33:06;;;;;;;2.20;1.50;;;16.60;73.50;;;;;;4976722;28;20022;-63
2023/06/06 03:35:35;;;;;;;2.35;1.60;;;16.60;73.80;;;;;;4957284;28;20104;-63
2023/06/06 03:38:02;;;;;;;2.88;1.45;;;16.60;73.80;;;;;;4961292;28;20128;-63
2023/06/06 03:40:28;;;;;;;3.30;1.77;;;16.60;74.10;;;;;;4956456;28;20034;-63
2023/06/06 03:42:55;;;;;;;2.45;1.50;;;16.60;74.10;;;;;;4964426;28;20041;-63
2023/06/06 03:45:22;;;;;;;3.20;1.80;;;16.70;74.40;;;;;;4963090;28;20041;-63
2023/06/06 03:47:49;;;;;;;5.45;1.60;;;16.70;74.60;;;;;;4963810;28;20022;-62
2023/06/06 03:50:15;;;;;;;4.15;1.38;;;16.70;75.00;;;;;;4961860;28;20050;-63
2023/06/06 03:52:42;;;;;;;2.05;1.83;;;16.60;74.30;;;;;;4976622;28;20022;-63
2023/06/06 03:55:09;;;;;;;2.85;1.90;;;16.70;75.00;;;;;;4975757;28;20141;-63
2023/06/06 03:57:38;;;;;;;2.45;1.83;;;16.60;75.20;;;;;;4952974;28;20031;-64
2023/06/06 04:00:14;;;;;;;2.67;2.00;;;16.60;75.40;;;;;;4956747;28;20039;-63
2023/06/06 04:02:42;;;;;;;3.30;1.33;;;16.60;75.50;;;;;;4961192;28;20697;-64
2023/06/06 04:05:09;;;;;;;3.17;2.03;;;16.70;75.60;;;;;;4960456;28;20034;-64
2023/06/06 04:07:36;;;;;;;4.75;2.00;;;16.70;75.70;;;;;;4958411;28;20037;-64
2023/06/06 04:10:02;;;;;;;1.92;1.50;;;16.70;75.70;;;;;;4958569;28;20245;-64
2023/06/06 04:12:30;;;;;;;3.15;1.60;;;16.70;76.70;;;;;;4958948;28;20536;-64
2023/06/06 04:14:56;;;;;;;2.72;1.60;;;16.70;76.40;;;;;;4973344;28;20732;-64
2023/06/06 04:17:24;;;;;;;1.83;1.50;;;16.70;76.90;;;;;;4963612;28;20049;-64
2023/06/06 04:19:51;;;;;;;3.17;1.70;;;16.70;77.40;;;;;;4964117;28;20141;-63
2023/06/06 04:22:18;;;;;;;2.30;1.42;;;16.70;77.60;;;;;;4960609;28;20477;-63
2023/06/06 04:24:44;;;;;;;2.50;1.40;;;16.70;77.90;;;;;;4980684;28;20030;-64
2023/06/06 04:27:12;;;;;;;3.47;1.45;;;16.80;77.70;;;;;;4964926;28;20022;-63
2023/06/06 04:29:41;;;;;;;3.13;1.60;;;16.90;77.70;;;;;;4961349;28;20146;-66
2023/06/06 04:32:10;;;;;;;4.72;2.10;;;16.90;77.40;;;;;;4957233;28;20026;-65
2023/06/06 04:34:41;;;;;;;2.25;1.65;;;17.00;77.80;;;;;;4967467;28;20062;-64
2023/06/06 04:37:08;;;;;;;2.33;1.30;;;17.00;77.90;;;;;;4961725;28;20034;-66
2023/06/06 04:39:35;;;;;;;1.98;1.40;;;17.10;78.10;;;;;;4979817;28;20019;-66
2023/06/06 04:42:04;;;;;;;4.20;1.80;;;17.10;77.30;;;;;;4981490;28;20071;-66
2023/06/06 04:44:31;;;;;;;7.85;1.80;;;17.20;75.60;;;;;;4981238;28;20027;-66
2023/06/06 04:47:01;;;;;;;4.63;1.88;;;17.30;72.20;;;;;;4978521;28;20027;-66
2023/06/06 04:49:35;;;;;;;5.10;1.80;;;17.40;72.60;;;;;;4959729;28;20031;-66
2023/06/06 04:52:09;;;;;;;2.10;1.63;;;17.50;74.30;;;;;;4964675;28;20083;-66
2023/06/06 04:54:38;;;;;;;2.60;1.52;;;17.50;73.70;;;;;;4979852;28;20906;-65
2023/06/06 04:57:08;;;;;;;3.35;1.50;;;17.60;74.30;;;;;;4981757;28;20903;-66
2023/06/06 04:59:35;;;;;;;2.20;1.85;;;17.70;75.20;;;;;;4978354;28;20049;-65
2023/06/06 05:02:04;;;;;;;2.08;1.70;;;17.80;75.50;;;;;;4980049;28;20044;-65
2023/06/06 05:04:31;;;;;;;2.85;1.58;;;17.90;75.60;;;;;;4981753;28;20655;-66
2023/06/06 05:06:57;;;;;;;2.10;1.63;;;18.00;76.00;;;;;;4975937;28;20033;-64
2023/06/06 05:09:23;;;;;;;2.47;1.77;;;18.10;73.40;;;;;;4974726;28;20023;-65
2023/06/06 05:11:51;;;;;;;3.55;1.55;;;18.20;74.60;;;;;;4983224;28;20057;-65
2023/06/06 05:14:23;;;;;;;3.58;1.90;;;18.20;73.90;;;;;;4981191;28;20089;-65
2023/06/06 05:16:57;;;;;;;3.25;1.60;;;18.30;71.90;;;;;;4980714;28;20022;-66
2023/06/06 05:19:23;;;;;;;2.75;1.85;;;18.30;73.60;;;;;;4959789;28;20043;-65
2023/06/06 05:21:49;;;;;;;2.30;1.70;;;18.40;74.30;;;;;;4978194;28;20037;-65
2023/06/06 05:24:15;;;;;;;2.78;1.70;;;18.40;74.40;;;;;;4974667;28;20030;-65
2023/06/06 05:26:42;;;;;;;1.98;1.48;;;18.40;74.80;;;;;;4976608;28;20026;-65
2023/06/06 05:29:08;;;;;;;2.78;1.50;;;18.50;75.70;;;;;;4980094;28;20042;-66
2023/06/06 05:31:34;;;;;;;2.45;1.75;;;18.50;76.30;;;;;;4978664;28;20046;-67
2023/06/06 05:34:01;;;;;;;2.78;1.70;;;18.50;76.40;;;;;;4980953;28;20026;-67
2023/06/06 05:36:27;;;;;;;2.03;1.45;;;18.50;76.00;;;;;;4980601;28;20043;-66
2023/06/06 05:38:53;;;;;;;5.60;1.77;;;18.60;75.90;;;;;;4978115;28;20038;-65
2023/06/06 05:41:20;;;;;;;2.05;1.55;;;18.60;76.10;;;;;;4975997;28;20540;-65
2023/06/06 05:43:50;;;;;;;2.45;1.70;;;18.70;76.50;;;;;;4976139;28;20034;-65
2023/06/06 05:46:16;;;;;;;7.63;1.90;;;18.70;76.10;;;;;;4977617;28;20117;-65
2023/06/06 05:48:42;;;;;;;5.50;2.38;;;18.80;73.60;;;;;;4982166;28;20122;-66
2023/06/06 05:51:08;;;;;;;2.88;1.70;;;18.80;73.90;;;;;;4981664;28;20468;-66
2023/06/06 05:53:34;;;;;;;4.00;1.92;;;18.90;70.80;;;;;;4975704;28;20034;-65
2023/06/06 05:56:00;;;;;;;4.25;2.00;;;18.90;71.10;;;;;;4977489;28;20083;-65
2023/06/06 05:58:26;;;;;;;3.92;1.80;;;19.00;69.90;;;;;;4976255;28;20065;-65
2023/06/06 06:00:52;;;;;;;4.10;1.80;;;19.10;69.00;;;;;;4974913;28;20939;-66
2023/06/06 06:03:18;;;;;;;6.60;2.63;;;19.10;70.00;;;;;;4973131;28;20011;-67
2023/06/06 06:05:44;;;;;;;4.15;1.67;;;19.30;69.60;;;;;;4982329;28;20038;-66
2023/06/06 06:08:10;;;;;;;6.45;2.03;;;19.40;70.00;;;;;;4980055;28;20519;-67
2023/06/06 06:10:37;;;;;;;2.83;1.85;;;19.50;68.90;;;;;;4980526;28;20038;-66
2023/06/06 06:13:05;;;;;;;4.88;1.92;;;19.50;69.50;;;;;;4975611;28;20077;-66
2023/06/06 06:15:32;;;;;;;5.60;1.95;;;19.60;69.40;;;;;;4977284;28;20045;-65
2023/06/06 06:18:02;;;;;;;5.80;2.38;;;19.60;68.70;;;;;;4974797;28;20030;-66
2023/06/06 06:20:28;;;;;;;3.17;1.80;;;19.70;66.70;;;;;;4975244;28;20031;-66
2023/06/06 06:22:54;;;;;;;3.47;1.73;;;19.70;65.90;;;;;;4982504;28;20041;-66
2023/06/06 06:25:20;;;;;;;3.15;1.60;;;19.80;66.20;;;;;;4980889;28;20022;-66
2023/06/06 06:27:46;;;;;;;2.75;1.70;;;19.80;66.50;;;;;;4980109;28;20807;-66
2023/06/06 06:30:14;;;;;;;2.25;1.65;;;19.90;67.70;;;;;;4978809;28;20038;-67
2023/06/06 06:32:43;;;;;;;3.67;1.70;;;20.00;67.80;;;;;;4978236;28;20041;-67
2023/06/06 06:35:09;;;;;;;4.72;1.95;;;20.10;69.10;;;;;;4959982;28;20049;-68
2023/06/06 06:37:39;;;;;;;4.30;1.98;;;20.20;67.40;;;;;;4953831;28;20398;-66
2023/06/06 06:40:17;;;;;;;5.43;1.95;;;20.30;67.40;;;;;;4978271;28;20085;-66
2023/06/06 06:42:44;;;;;;;3.72;2.33;;;20.50;67.50;;;;;;4977877;28;20713;-66
2023/06/06 06:45:34;;;;;;;4.78;2.30;;;20.60;67.10;;;;;;4945149;28;20140;-66
2023/06/06 06:48:01;;;;;;;2.88;1.80;;;20.70;67.10;;;;;;4975725;28;20141;-66
2023/06/06 06:50:27;;;;;;;4.72;1.67;;;20.80;67.50;;;;;;4975244;28;20050;-66
2023/06/06 06:52:56;;;;;;;3.40;1.88;;;20.90;67.10;;;;;;4974944;28;20030;-67
2023/06/06 06:55:25;;;;;;;5.55;2.88;;;21.00;66.90;;;;;;4977042;28;20026;-64
2023/06/06 06:57:52;;;;;;;6.25;2.75;;;21.00;65.30;;;;;;4978054;28;20045;-61
2023/06/06 07:00:21;;;;;;;5.80;2.88;;;21.10;64.70;;;;;;4982490;28;20026;-63
2023/06/06 07:02:47;;;;;;;7.03;2.13;;;21.20;63.90;;;;;;4982029;28;20034;-63
2023/06/06 07:05:17;;;;;;;4.40;2.72;;;21.30;63.60;;;;;;4980745;28;20587;-62
2023/06/06 07:07:43;;;;;;;8.50;4.70;;;21.30;62.90;;;;;;4982675;28;20565;-62
2023/06/06 07:10:10;;;;;;;6.95;3.90;;;21.40;62.80;;;;;;4980318;28;20138;-62
2023/06/06 07:12:35;;;;;;;8.70;3.28;;;21.40;63.80;;;;;;4982184;28;20018;-62
2023/06/06 07:15:01;;;;;;;6.22;3.60;;;21.50;63.70;;;;;;4983160;28;20454;-61
2023/06/06 07:17:27;;;;;;;6.78;3.78;;;21.50;63.40;;;;;;4982450;28;20069;-62
2023/06/06 07:19:53;;;;;;;4.75;2.88;;;21.50;63.40;;;;;;4981987;28;20364;-62
2023/06/06 07:22:18;;;;;;;7.03;3.30;;;21.60;63.90;;;;;;4982680;28;20041;-61
2023/06/06 07:24:45;;;;;;;7.55;2.53;;;21.70;64.00;;;;;;4980103;28;20069;-61
2023/06/06 07:27:13;;;;;;;3.67;2.30;;;21.70;63.70;;;;;;4978837;28;20033;-59
2023/06/06 07:29:39;;;;;;;5.07;3.00;;;21.80;62.80;;;;;;4981591;28;20045;-62
2023/06/06 07:32:05;;;;;;;5.55;2.88;;;21.90;62.90;;;;;;4982244;28;20030;-62
2023/06/06 07:34:31;;;;;;;3.63;2.88;;;21.90;62.40;;;;;;4981840;28;20045;-62
2023/06/06 07:36:59;;;;;;;5.50;3.03;;;21.90;62.40;;;;;;4978673;28;20038;-61
2023/06/06 07:39:25;;;;;;;5.30;2.78;;;21.90;61.80;;;;;;4982215;28;20057;-61
2023/06/06 07:41:51;;;;;;;6.25;2.65;;;22.00;61.20;;;;;;4981973;28;20382;-62
2023/06/06 07:44:18;;;;;;;4.60;2.28;;;22.10;61.50;;;;;;4981719;28;20042;-60
2023/06/06 07:46:44;;;;;;;5.72;2.08;;;22.20;60.90;;;;;;4982604;28;20038;-62
2023/06/06 07:49:10;;;;;;;5.32;2.60;;;22.30;61.40;;;;;;4981733;28;20035;-62
2023/06/06 07:51:36;;;;;;;8.40;2.63;;;22.40;60.90;;;;;;4982518;28;20651;-60
2023/06/06 07:54:02;;;;;;;5.93;2.47;;;22.50;61.40;;;;;;4983313;28;20459;-62
2023/06/06 07:56:30;;;;;;;7.47;3.60;;;22.60;61.10;;;;;;4978853;28;20046;-60
2023/06/06 07:58:57;;;;;;;5.60;2.63;;;22.70;60.40;;;;;;4978535;28;20044;-60
2023/06/06 08:01:24;;;;;;;2.85;2.28;;;22.80;60.90;;;;;;4967077;28;20136;-60
2023/06/06 08:03:51;;;;;;;5.65;2.05;;;22.90;60.60;;;;;;4980882;28;20034;-60
2023/06/06 08:06:17;;;;;;;3.72;2.33;;;23.00;60.30;;;;;;4976283;28;20030;-60
2023/06/06 08:08:45;;;;;;;6.50;3.55;;;23.00;59.40;;;;;;4981029;28;20105;-60
2023/06/06 08:11:13;;;;;;;6.85;3.63;;;23.00;59.40;;;;;;4983174;28;20030;-60
2023/06/06 08:13:39;;;;;;;6.72;3.08;;;23.00;60.30;;;;;;4981815;28;20158;-60
2023/06/06 08:16:05;;;;;;;3.72;1.90;;;23.00;59.70;;;;;;4979565;28;20022;-59
2023/06/06 08:18:31;;;;;;;3.42;2.22;;;23.10;61.20;;;;;;4981073;28;20057;-60
2023/06/06 08:20:57;;;;;;;5.10;2.00;;;23.30;61.70;;;;;;4979071;28;20057;-60
2023/06/06 08:23:23;;;;;;;8.85;2.53;;;23.40;61.10;;;;;;4980721;28;20027;-60
2023/06/06 08:25:49;;;;;;;2.97;1.88;;;23.70;59.50;;;;;;4979912;28;20555;-60
2023/06/06 08:28:15;;;;;;;6.10;2.30;;;23.90;56.90;;;;;;4982718;28;20026;-58
2023/06/06 08:30:41;;;;;;;8.65;2.30;;;24.00;54.30;;;;;;4983647;28;20027;-58
2023/06/06 08:33:07;;;;;;;9.95;2.40;;;24.30;51.70;;;;;;4980928;28;20426;-60
2023/06/06 08:35:32;;;;;;;7.88;2.30;;;24.40;49.10;;;;;;4981219;28;20468;-60
2023/06/06 08:37:58;;;;;;;6.97;2.15;;;24.50;49.30;;;;;;4966137;28;20037;-62
2023/06/06 08:40:24;;;;;;;3.80;1.88;;;24.50;50.20;;;;;;4976412;28;20070;-61
2023/06/06 08:42:52;;;;;;;6.00;2.60;;;24.60;49.10;;;;;;4977943;28;20074;-60
2023/06/06 08:45:21;;;;;;;5.03;2.15;;;24.50;49.30;;;;;;4983912;28;20034;-60
2023/06/06 08:47:48;;;;;;;7.38;2.22;;;24.40;49.00;;;;;;4981939;28;21034;-60
2023/06/06 08:50:19;;;;;;;2.70;2.03;;;24.30;49.10;;;;;;4979510;28;20173;-60
2023/06/06 08:52:46;;;;;;;5.45;1.90;;;24.30;49.10;;;;;;4979522;28;20061;-60
2023/06/06 08:55:12;;;;;;;2.97;1.70;;;24.10;48.90;;;;;;4975581;28;20038;-60
2023/06/06 08:57:41;;;;;;;3.88;2.17;;;24.10;49.60;;;;;;4977015;28;20097;-63
2023/06/06 09:00:18;;;;;;;4.80;2.08;;;24.10;48.50;;;;;;4972724;28;20035;-60
2023/06/06 09:02:46;;;;;;;4.68;1.98;;;24.00;47.80;;;;;;4976843;28;20034;-60
2023/06/06 09:05:13;;;;;;;5.15;2.05;;;24.10;48.50;;;;;;4980607;28;20654;-60
2023/06/06 09:07:40;;;;;;;5.80;2.20;;;24.10;48.40;;;;;;4979833;28;20041;-60
2023/06/06 09:10:07;;;;;;;3.63;1.98;;;24.20;48.60;;;;;;4977735;28;20398;-59
2023/06/06 09:12:40;;;;;;;5.43;1.83;;;24.10;48.60;;;;;;4978767;28;20413;-60
2023/06/06 09:15:07;;;;;;;4.75;2.03;;;24.10;49.50;;;;;;4975267;28;20034;-60
2023/06/06 09:17:36;;;;;;;3.15;1.92;;;24.10;49.30;;;;;;4976363;28;20099;-60
2023/06/06 09:20:10;;;;;;;9.73;2.42;;;24.10;49.40;;;;;;4980221;28;20056;-60
2023/06/06 09:22:39;;;;;;;5.40;2.15;;;24.10;49.60;;;;;;4979691;28;20350;-58
2023/06/06 09:25:06;;;;;;;4.60;2.22;;;24.20;49.40;;;;;;4980207;28;20046;-60
2023/06/06 09:27:32;;;;;;;3.00;1.92;;;24.30;49.50;;;;;;4979908;28;20030;-60
2023/06/06 09:29:58;;;;;;;8.77;2.53;;;24.40;49.00;;;;;;4980447;28;20042;-59
2023/06/06 09:32:30;;;;;;;4.55;2.42;;;24.40;49.10;;;;;;4976434;28;20945;-62
2023/06/06 09:35:15;;;;;;;6.68;2.20;;;24.30;48.50;;;;;;4975157;28;20422;-60
2023/06/06 09:37:41;;;;;;;7.85;2.60;;;24.30;49.80;;;;;;4980638;28;20477;-61
2023/06/06 09:40:11;;;;;;;5.47;2.30;;;24.30;48.50;;;;;;4981558;28;20033;-60
2023/06/06 09:42:38;;;;;;;6.63;2.33;;;24.30;48.30;;;;;;4976331;28;20125;-60
2023/06/06 09:45:17;;;;;;;5.22;2.60;;;24.30;48.50;;;;;;4979095;28;20726;-60
2023/06/06 09:47:45;;;;;;;6.60;2.72;;;24.40;48.70;;;;;;4976556;28;20030;-60
2023/06/06 09:50:13;;;;;;;4.72;2.70;;;24.50;49.20;;;;;;4978058;28;20105;-61
2023/06/06 09:52:40;;;;;;;5.05;2.33;;;24.50;48.40;;;;;;4976403;28;20026;-61
2023/06/06 09:55:10;;;;;;;5.10;1.83;;;24.60;48.10;;;;;;4979721;28;20034;-60
2023/06/06 09:57:39;;;;;;;4.68;2.25;;;24.60;49.00;;;;;;4977651;28;20053;-60
2023/06/06 10:00:10;;;;;;;6.90;2.72;;;24.50;48.00;;;;;;4979677;28;20062;-60
2023/06/06 10:02:46;;;;;;;4.43;2.50;;;24.40;48.00;;;;;;4978056;28;20042;-60
2023/06/06 10:05:14;;;;;;;5.07;3.20;;;24.40;47.20;;;;;;4975929;28;20639;-60
2023/06/06 10:07:45;;;;;;;18.17;11.88;;;24.40;48.10;;;;;;4976714;28;20077;-58
2023/06/06 10:10:16;;;;;;;13.23;7.93;;;24.30;48.50;;;;;;4975765;28;20030;-60
2023/06/06 10:12:43;;;;;;;14.52;7.65;;;24.40;48.90;;;;;;4979137;28;20142;-60
2023/06/06 10:15:13;;;;;;;13.60;6.85;;;24.40;49.20;;;;;;4981574;28;20133;-60
2023/06/06 10:17:41;;;;;;;22.27;12.27;;;24.40;48.70;;;;;;4981241;28;20145;-60
2023/06/06 10:20:12;;;;;;;8.68;4.30;;;24.30;49.00;;;;;;4978035;28;20492;-59
2023/06/06 10:22:41;;;;;;;6.32;3.50;;;24.20;49.80;;;;;;4974388;28;20048;-60
2023/06/06 10:25:12;;;;;;;5.40;3.65;;;24.20;49.30;;;;;;4973992;28;20161;-60
2023/06/06 10:27:56;;;;;;;6.30;3.42;;;24.30;49.80;;;;;;4971752;28;20026;-60
2023/06/06 10:30:28;;;;;;;5.22;3.50;;;24.30;49.40;;;;;;4977348;28;20038;-60
2023/06/06 10:33:17;;;;;;;5.95;3.35;;;24.40;49.80;;;;;;4980657;28;20030;-60
2023/06/06 10:35:46;;;;;;;6.00;3.35;;;24.50;50.10;;;;;;4956949;28;20112;-59
2023/06/06 10:38:12;;;;;;;5.55;2.13;;;24.50;49.60;;;;;;4976270;28;20867;-60
2023/06/06 10:40:54;;;;;;;5.32;2.53;;;24.50;52.60;;;;;;4977542;28;20038;-60
2023/06/06 10:43:35;;;;;;;6.45;2.90;;;24.50;50.10;;;;;;4974344;28;20054;-60
2023/06/06 10:46:02;;;;;;;6.28;2.80;;;24.40;49.80;;;;;;4972616;28;20109;-60
2023/06/06 10:48:54;;;;;;;5.20;2.90;;;24.30;50.00;;;;;;4980643;28;20062;-60
2023/06/06 10:51:23;;;;;;;4.57;2.65;;;23.90;50.50;;;;;;4979639;28;20027;-60
2023/06/06 10:54:20;;;;;;;3.58;2.53;;;23.80;51.20;;;;;;4979419;28;20034;-63
2023/06/06 10:56:52;;;;;;;;;;;23.80;51.80;;;;;;4974004;28;20080;-62
2023/06/06 10:59:25;;;;;;;5.88;2.60;;;23.90;52.90;;;;;;4977211;28;20935;-61
2023/06/06 11:01:52;;;;;;;7.20;2.90;;;23.90;52.20;;;;;;4974606;28;20023;-61
2023/06/06 11:04:25;;;;;;;3.75;2.65;;;24.00;51.70;;;;;;4972377;28;20146;-61
2023/06/06 11:06:53;;;;;;;5.57;2.70;;;24.10;51.70;;;;;;4981779;28;20783;-61
2023/06/06 11:09:25;;;;;;;5.57;2.50;;;24.30;50.80;;;;;;4978894;28;20026;-61
2023/06/06 11:12:13;;;;;;;6.28;2.53;;;24.30;51.20;;;;;;4979284;28;20027;-61
2023/06/06 11:15:00;;;;;;;5.40;2.72;;;24.20;50.60;;;;;;4975862;28;20026;-61
2023/06/06 11:17:29;;;;;;;3.08;2.67;;;24.10;51.50;;;;;;4974413;28;20089;-61
2023/06/06 11:19:56;;;;;;;2.67;2.15;;;24.10;51.20;;;;;;4974073;28;20105;-62
2023/06/06 11:22:25;;;;;;;4.43;2.25;;;24.10;52.30;;;;;;4976722;28;20038;-61
2023/06/06 11:24:51;;;;;;;3.92;2.90;;;24.20;52.00;;;;;;4980321;28;20034;-62
2023/06/06 11:27:17;;;;;;;3.33;2.08;;;24.30;52.40;;;;;;4963573;28;20073;-61
2023/06/06 11:29:45;;;;;;;3.78;2.30;;;24.40;52.50;;;;;;4978207;28;20125;-61
2023/06/06 11:32:14;;;;;;;3.90;2.75;;;24.50;50.90;;;;;;4977394;28;20031;-61
2023/06/06 11:34:41;;;;;;;4.55;2.60;;;24.50;51.00;;;;;;4979146;28;20030;-61
2023/06/06 11:37:08;;;;;;;3.45;2.47;;;24.50;50.80;;;;;;4976574;28;20372;-61
2023/06/06 11:39:35;;;;;;;3.45;2.60;;;24.30;50.70;;;;;;4976981;28;20042;-60
2023/06/06 11:42:01;;;;;;;3.47;2.38;;;24.30;51.00;;;;;;4985263;28;20038;-61
2023/06/06 11:44:32;;;;;;;4.60;2.65;;;24.00;52.10;;;;;;4983618;28;20034;-61
2023/06/06 11:46:59;;;;;;;4.72;2.50;;;24.00;52.10;;;;;;4980004;28;20030;-61
2023/06/06 11:49:25;;;;;;;4.20;2.70;;;24.00;52.00;;;;;;4979617;28;20204;-61
2023/06/06 11:51:57;;;;;;;3.92;2.35;;;23.90;52.10;;;;;;4979849;28;20030;-61
2023/06/06 11:54:24;;;;;;;5.53;2.83;;;23.80;52.30;;;;;;4977095;28;20621;-61
2023/06/06 11:56:52;;;;;;;4.13;2.70;;;23.80;52.70;;;;;;4976933;28;20100;-61
2023/06/06 11:59:19;;;;;;;3.42;2.20;;;23.70;52.80;;;;;;4983183;28;20033;-61
2023/06/06 12:01:53;;;;;;;5.50;2.38;;;23.80;52.60;;;;;;4983736;28;20070;-61
2023/06/06 12:04:20;;;;;;;5.30;3.53;;;23.70;52.60;;;;;;4981542;28;20035;-60
2023/06/06 12:06:50;;;;;;;3.85;3.00;;;23.60;52.90;;;;;;4984394;28;20486;-62
2023/06/06 12:09:18;;;;;;;6.05;3.30;;;23.40;52.90;;;;;;4984161;28;20029;-62
2023/06/06 12:11:54;;;;;;;3.97;3.08;;;23.50;53.50;;;;;;4983811;28;20054;-63
2023/06/06 12:14:21;;;;;;;4.40;3.00;;;23.50;53.20;;;;;;4983483;28;20034;-63
2023/06/06 12:16:47;;;;;;;4.60;2.83;;;23.50;52.90;;;;;;4985996;28;20112;-61
2023/06/06 12:19:17;;;;;;;3.85;2.80;;;23.50;53.90;;;;;;4984994;28;20392;-63
2023/06/06 12:21:47;;;;;;;4.68;2.70;;;23.60;53.30;;;;;;4985544;28;20038;-61
2023/06/06 12:24:33;;;;;;;3.70;2.35;;;23.60;52.90;;;;;;4985332;28;20042;-61
2023/06/06 12:27:01;;;;;;;3.10;2.47;;;23.50;52.80;;;;;;4986031;28;20038;-62
2023/06/06 12:29:30;;;;;;;3.60;2.20;;;23.60;52.60;;;;;;4984729;28;20497;-62
2023/06/06 12:32:17;;;;;;;8.32;3.10;;;23.70;52.90;;;;;;4986091;28;20030;-62
2023/06/06 12:35:05;;;;;;;3.58;2.60;;;23.70;52.80;;;;;;4983636;28;20118;-62
2023/06/06 12:37:45;;;;;;;4.95;2.85;;;23.60;52.50;;;;;;4985295;28;20034;-62
2023/06/06 12:40:27;;;;;;;4.50;2.60;;;23.70;53.10;;;;;;4985780;28;20041;-62
2023/06/06 12:42:59;;;;;;;4.03;2.75;;;23.70;52.40;;;;;;4979502;28;20040;-62
2023/06/06 12:45:26;;;;;;;5.05;2.80;;;23.70;52.40;;;;;;4982235;28;20042;-62
2023/06/06 12:47:54;;;;;;;7.25;2.72;;;23.70;52.50;;;;;;4987117;28;20025;-62
2023/06/06 12:50:20;;;;;;;3.95;2.47;;;23.70;52.00;;;;;;4981602;28;20233;-62
2023/06/06 12:52:50;;;;;;;3.22;2.25;;;23.80;52.60;;;;;;4985452;28;20022;-62
2023/06/06 12:55:17;;;;;;;4.90;2.40;;;23.90;52.20;;;;;;4984203;28;20042;-62